createdAt,value
2017-04-20T03:12:04.440Z,0.76
2017-04-20T03:13:05.807Z,0.79
2017-04-20T03:14:07.226Z,0.82
2017-04-20T03:15:08.649Z,0.76
2017-04-20T03:16:10.064Z,1.08
2017-04-20T03:17:11.474Z,1.01
2017-04-20T03:18:12.900Z,0.76
2017-04-20T03:19:14.325Z,0.67
2017-04-20T03:20:15.745Z,0.75
2017-04-20T03:21:17.157Z,0.61
2017-04-20T03:22:18.574Z,0.65
2017-04-20T03:23:19.995Z,0.65
2017-04-20T03:24:21.416Z,0.70
2017-04-20T03:25:22.840Z,0.75
2017-04-20T03:26:24.263Z,0.76
2017-04-20T03:27:25.681Z,0.76
2017-04-20T03:28:27.096Z,0.85
2017-04-20T03:29:28.463Z,0.80
2017-04-20T03:30:29.882Z,0.75
2017-04-20T03:31:31.299Z,0.86
2017-04-20T03:32:32.712Z,0.86
2017-04-20T03:33:34.131Z,0.80
2017-04-20T03:34:35.546Z,0.89
2017-04-20T03:35:36.959Z,1.24
2017-04-20T03:36:38.375Z,1.25
2017-04-20T03:37:39.834Z,0.92
2017-04-20T03:38:41.258Z,0.78
2017-04-20T03:39:42.681Z,0.46
2017-04-20T03:40:44.097Z,0.30
2017-04-20T03:41:45.513Z,0.52
2017-04-20T03:42:46.931Z,0.72
2017-04-20T03:43:48.351Z,0.92
2017-04-20T03:44:49.769Z,1.21
2017-04-20T03:45:51.177Z,1.15
2017-04-20T03:46:52.595Z,1.18
2017-04-20T03:47:54.009Z,1.21
2017-04-20T03:48:55.433Z,0.78
2017-04-20T03:49:56.857Z,0.65
2017-04-20T03:50:58.270Z,0.53
2017-04-20T03:51:59.685Z,0.68
2017-04-20T03:53:01.101Z,0.53
2017-04-20T03:54:02.512Z,0.71
2017-04-20T03:55:03.925Z,0.86
2017-04-20T03:56:05.350Z,1.01
2017-04-20T03:57:06.769Z,1.12
2017-04-20T03:58:08.191Z,0.97
2017-04-20T03:59:09.610Z,0.88
2017-04-20T04:00:11.023Z,0.94
2017-04-20T04:01:12.444Z,0.76
2017-04-20T04:02:13.862Z,0.71
2017-04-20T04:03:15.279Z,0.62
2017-04-20T04:04:16.701Z,0.68
2017-04-20T04:05:18.120Z,0.70
2017-04-20T04:06:19.533Z,0.76
2017-04-20T04:07:20.948Z,0.89
2017-04-20T04:08:22.361Z,0.96
2017-04-20T04:09:23.775Z,0.86
2017-04-20T04:10:25.190Z,0.89
2017-04-20T04:11:26.607Z,0.79
2017-04-20T04:12:28.020Z,1.01
2017-04-20T04:13:29.455Z,0.79
2017-04-20T04:14:30.871Z,0.60
2017-04-20T04:15:32.280Z,0.52
2017-04-20T04:16:33.705Z,0.28
2017-04-20T04:17:35.124Z,0.28
2017-04-20T04:18:36.541Z,0.18
2017-04-20T04:19:38.005Z,0.23
2017-04-20T04:20:39.422Z,0.15
2017-04-20T04:21:40.844Z,0.27
2017-04-20T04:22:42.266Z,0.36
2017-04-20T04:23:43.684Z,0.13
2017-04-20T04:24:45.102Z,0.15
2017-04-20T04:25:46.524Z,0.38
2017-04-20T04:26:47.947Z,0.64
2017-04-20T04:27:49.367Z,0.62
2017-04-20T04:28:50.782Z,0.79
2017-04-20T04:29:52.202Z,0.70
2017-04-20T04:30:53.621Z,0.78
2017-04-20T04:31:55.038Z,0.57
2017-04-20T04:32:56.459Z,0.36
2017-04-20T04:33:57.876Z,0.24
2017-04-20T04:34:59.294Z,0.18
2017-04-20T04:36:00.716Z,-0.05
2017-04-20T04:37:02.142Z,-0.19
2017-04-20T04:38:03.567Z,-0.26
2017-04-20T04:39:04.987Z,-0.22
2017-04-20T04:40:06.410Z,-0.19
2017-04-20T04:41:07.827Z,0.03
2017-04-20T04:42:09.264Z,0.07
2017-04-20T04:43:10.665Z,-0.08
2017-04-20T04:44:12.083Z,-0.01
2017-04-20T04:45:13.503Z,0.12
2017-04-20T04:46:14.916Z,0.25
2017-04-20T04:47:16.337Z,0.49
2017-04-20T04:48:17.761Z,0.58
2017-04-20T04:49:19.176Z,0.49
2017-04-20T04:50:20.605Z,0.64
2017-04-20T04:51:22.025Z,0.71
2017-04-20T04:52:23.451Z,0.64
2017-04-20T04:53:24.859Z,0.43
2017-04-20T04:54:26.277Z,0.46
2017-04-20T04:55:27.705Z,0.42
2017-04-20T04:56:29.127Z,0.42
2017-04-20T04:57:30.549Z,0.53
2017-04-20T04:58:32.012Z,0.49
2017-04-20T04:59:33.446Z,0.18
2017-04-20T05:00:34.865Z,-0.06
2017-04-20T05:01:36.288Z,-0.11
2017-04-20T05:02:37.770Z,0.16
2017-04-20T05:03:39.194Z,0.49
2017-04-20T05:04:40.611Z,0.75
2017-04-20T05:05:42.099Z,0.65
2017-04-20T05:06:43.510Z,0.80
2017-04-20T05:07:44.933Z,0.58
2017-04-20T05:08:46.364Z,0.45
2017-04-20T05:09:47.866Z,0.43
2017-04-20T05:10:49.291Z,0.30
2017-04-20T05:11:50.705Z,0.48
2017-04-20T05:12:52.129Z,0.57
2017-04-20T05:13:53.546Z,0.65
2017-04-20T05:14:54.967Z,0.57
2017-04-20T05:15:56.392Z,0.45
2017-04-20T05:16:57.808Z,0.38
2017-04-20T05:17:59.222Z,0.34
2017-04-20T05:19:00.651Z,0.43
2017-04-20T05:20:02.077Z,0.62
2017-04-20T05:21:03.496Z,0.67
2017-04-20T05:22:04.916Z,0.58
2017-04-20T05:23:06.340Z,0.53
2017-04-20T05:24:07.763Z,0.53
2017-04-20T05:25:09.183Z,0.64
2017-04-20T05:26:10.601Z,0.62
2017-04-20T05:27:12.026Z,0.67
2017-04-20T05:28:13.446Z,0.48
2017-04-20T05:29:14.860Z,0.46
2017-04-20T05:30:16.281Z,0.67
2017-04-20T05:31:17.699Z,0.52
2017-04-20T05:32:19.119Z,0.64
2017-04-20T05:33:20.542Z,0.62
2017-04-20T05:34:21.959Z,0.51
2017-04-20T05:35:23.392Z,0.46
2017-04-20T05:36:24.817Z,0.42
2017-04-20T05:37:26.233Z,0.57
2017-04-20T05:38:27.659Z,0.68
2017-04-20T05:39:29.079Z,0.65
2017-04-20T05:40:30.506Z,0.85
2017-04-20T05:41:31.934Z,0.89
2017-04-20T05:42:33.349Z,0.88
2017-04-20T05:43:34.773Z,0.79
2017-04-20T05:44:36.191Z,0.65
2017-04-20T05:45:37.611Z,0.62
2017-04-20T05:46:39.028Z,0.72
2017-04-20T05:47:40.448Z,0.78
2017-04-20T05:48:41.876Z,0.92
2017-04-20T05:49:43.303Z,1.01
2017-04-20T05:50:44.723Z,1.06
2017-04-20T05:51:46.152Z,1.03
2017-04-20T05:52:47.569Z,1.21
2017-04-20T05:53:48.992Z,1.22
2017-04-20T05:54:50.405Z,1.44
2017-04-20T05:55:51.832Z,1.36
2017-04-20T05:56:53.255Z,1.28
2017-04-20T05:57:54.678Z,1.28
2017-04-20T05:58:56.103Z,1.14
2017-04-20T05:59:57.521Z,1.36
2017-04-20T06:00:58.938Z,1.26
2017-04-20T06:02:00.351Z,1.25
2017-04-20T06:03:01.775Z,1.51
2017-04-20T06:04:03.196Z,1.72
2017-04-20T06:05:04.615Z,1.91
2017-04-20T06:06:06.034Z,1.87
2017-04-20T06:07:07.459Z,1.90
2017-04-20T06:08:08.877Z,1.91
2017-04-20T06:09:10.296Z,1.87
2017-04-20T06:10:11.713Z,1.80
2017-04-20T06:11:13.133Z,1.98
2017-04-20T06:12:14.561Z,1.93
2017-04-20T06:13:15.986Z,1.90
2017-04-20T06:14:17.407Z,1.83
2017-04-20T06:15:18.828Z,1.94
2017-04-20T06:16:20.261Z,2.16
2017-04-20T06:17:21.682Z,2.16
2017-04-20T06:18:23.100Z,2.30
2017-04-20T06:19:24.518Z,2.46
2017-04-20T06:20:25.936Z,2.23
2017-04-20T06:21:27.353Z,2.13
2017-04-20T06:22:28.774Z,2.26
2017-04-20T06:23:30.195Z,2.28
2017-04-20T06:24:31.614Z,2.13
2017-04-20T06:25:33.039Z,2.26
2017-04-20T06:26:34.470Z,2.35
2017-04-20T06:27:35.888Z,2.51
2017-04-20T06:28:37.306Z,2.58
2017-04-20T06:29:38.724Z,2.52
2017-04-20T06:30:40.148Z,2.81
2017-04-20T06:31:41.576Z,2.76
2017-04-20T06:32:43.003Z,2.82
2017-04-20T06:33:44.426Z,2.81
2017-04-20T06:34:45.841Z,2.76
2017-04-20T06:35:47.265Z,2.97
2017-04-20T06:36:48.678Z,2.97
2017-04-20T06:37:50.105Z,2.91
2017-04-20T06:38:51.525Z,2.94
2017-04-20T06:39:52.950Z,3.05
2017-04-20T06:40:54.375Z,3.31
2017-04-20T06:41:55.852Z,3.67
2017-04-20T06:42:57.271Z,3.82
2017-04-20T06:43:58.693Z,3.75
2017-04-20T06:45:00.215Z,3.70
2017-04-20T06:46:01.659Z,3.75
2017-04-20T06:47:03.077Z,3.80
2017-04-20T06:48:04.510Z,3.80
2017-04-20T06:49:05.979Z,4.19
2017-04-20T06:50:07.401Z,4.28
2017-04-20T06:51:08.826Z,4.33
2017-04-20T06:52:10.256Z,4.36
2017-04-20T06:53:11.776Z,4.22
2017-04-20T06:54:13.206Z,4.44
2017-04-20T06:55:14.641Z,4.57
2017-04-20T06:56:16.063Z,4.58
2017-04-20T06:57:17.498Z,4.73
2017-04-20T06:58:18.918Z,4.80
2017-04-20T06:59:20.303Z,4.72
2017-04-20T07:00:21.732Z,4.70
2017-04-20T07:01:23.152Z,5.04
2017-04-20T07:02:24.575Z,4.61
2017-04-20T07:03:26.007Z,4.50
2017-04-20T07:04:27.432Z,4.55
2017-04-20T07:05:28.856Z,4.73
2017-04-20T07:06:30.293Z,5.02
2017-04-20T07:07:31.715Z,4.98
2017-04-20T07:08:33.138Z,5.01
2017-04-20T07:09:34.565Z,5.01
2017-04-20T07:10:35.984Z,5.23
2017-04-20T07:11:37.406Z,5.38
2017-04-20T07:12:38.829Z,5.41
2017-04-20T07:13:40.253Z,5.66
2017-04-20T07:14:41.677Z,5.45
2017-04-20T07:15:43.103Z,5.63
2017-04-20T07:16:44.525Z,5.63
2017-04-20T07:17:45.954Z,5.70
2017-04-20T07:18:47.389Z,5.63
2017-04-20T07:19:48.815Z,5.70
2017-04-20T07:20:50.243Z,5.73
2017-04-20T07:21:51.668Z,5.85
2017-04-20T07:22:53.093Z,5.81
2017-04-20T07:23:54.521Z,6.01
2017-04-20T07:24:55.957Z,5.88
2017-04-20T07:25:57.376Z,5.98
2017-04-20T07:26:58.804Z,5.98
2017-04-20T07:28:00.232Z,5.93
2017-04-20T07:29:01.665Z,6.04
2017-04-20T07:30:03.087Z,6.28
2017-04-20T07:31:04.517Z,6.16
2017-04-20T07:32:05.938Z,6.28
2017-04-20T07:33:07.366Z,6.33
2017-04-20T07:34:08.793Z,6.33
2017-04-20T07:35:10.222Z,6.58
2017-04-20T07:36:11.645Z,6.83
2017-04-20T07:37:13.066Z,6.73
2017-04-20T07:38:14.488Z,6.69
2017-04-20T07:39:15.919Z,6.89
2017-04-20T07:40:17.347Z,6.81
2017-04-20T07:41:18.773Z,6.76
2017-04-20T07:42:20.195Z,6.91
2017-04-20T07:43:21.616Z,6.91
2017-04-20T07:44:23.045Z,7.02
2017-04-20T07:45:24.479Z,6.99
2017-04-20T07:46:25.916Z,7.05
2017-04-20T07:47:27.348Z,7.09
2017-04-20T07:48:28.774Z,7.22
2017-04-20T07:49:30.204Z,7.19
2017-04-20T07:50:31.641Z,6.77
2017-04-20T07:51:33.074Z,7.01
2017-04-20T07:52:34.500Z,7.16
2017-04-20T07:53:35.928Z,7.31
2017-04-20T07:54:37.363Z,7.26
2017-04-20T07:55:38.795Z,7.19
2017-04-20T07:56:40.231Z,7.41
2017-04-20T07:57:41.668Z,7.38
2017-04-20T07:58:43.084Z,7.40
2017-04-20T07:59:44.513Z,7.59
2017-04-20T08:00:45.932Z,7.58
2017-04-20T08:01:47.318Z,7.58
2017-04-20T08:02:48.746Z,7.41
2017-04-20T08:03:50.175Z,7.42
2017-04-20T08:04:51.600Z,7.44
2017-04-20T08:05:53.032Z,7.45
2017-04-20T08:06:54.458Z,7.58
2017-04-20T08:07:55.889Z,7.63
2017-04-20T08:08:57.310Z,7.58
2017-04-20T08:09:58.733Z,7.67
2017-04-20T08:11:00.163Z,7.77
2017-04-20T08:12:01.596Z,7.87
2017-04-20T08:13:03.022Z,8.02
2017-04-20T08:14:04.456Z,8.03
2017-04-20T08:15:05.885Z,8.18
2017-04-20T08:16:07.315Z,8.17
2017-04-20T08:17:08.744Z,8.04
2017-04-20T08:18:10.177Z,8.14
2017-04-20T08:19:11.602Z,8.07
2017-04-20T08:20:13.026Z,8.15
2017-04-20T08:21:14.458Z,8.25
2017-04-20T08:22:15.883Z,8.35
2017-04-20T08:23:17.266Z,8.48
2017-04-20T08:24:18.698Z,8.53
2017-04-20T08:25:20.126Z,8.33
2017-04-20T08:26:21.549Z,8.21
2017-04-20T08:27:22.980Z,8.15
2017-04-20T08:28:24.408Z,7.99
2017-04-20T08:29:25.833Z,8.04
2017-04-20T08:30:27.279Z,8.02
2017-04-20T08:31:28.712Z,8.28
2017-04-20T08:32:30.140Z,7.96
2017-04-20T08:33:31.563Z,8.00
2017-04-20T08:34:33.002Z,8.04
2017-04-20T08:35:34.642Z,8.04
2017-04-20T08:36:36.071Z,8.26
2017-04-20T08:37:37.495Z,8.21
2017-04-20T08:38:38.919Z,8.37
2017-04-20T08:39:40.351Z,8.21
2017-04-20T08:40:41.783Z,8.07
2017-04-20T08:41:43.202Z,8.07
2017-04-20T08:42:44.638Z,8.29
2017-04-20T08:43:46.067Z,8.44
2017-04-20T08:44:47.497Z,8.63
2017-04-20T08:45:48.936Z,8.51
2017-04-20T08:46:50.363Z,8.45
2017-04-20T08:47:51.793Z,8.44
2017-04-20T08:48:53.224Z,8.50
2017-04-20T08:49:54.659Z,8.78
2017-04-20T08:50:56.081Z,8.71
2017-04-20T08:51:57.510Z,8.84
2017-04-20T08:52:58.944Z,8.94
2017-04-20T08:54:00.380Z,9.10
2017-04-20T08:55:01.809Z,9.04
2017-04-20T08:56:03.234Z,9.16
2017-04-20T08:57:04.663Z,8.96
2017-04-20T08:58:06.095Z,9.05
2017-04-20T08:59:07.521Z,9.23
2017-04-20T09:00:08.951Z,8.84
2017-04-20T09:01:10.384Z,8.86
2017-04-20T09:02:11.810Z,9.05
2017-04-20T09:03:13.246Z,9.13
2017-04-20T09:04:14.625Z,9.13
2017-04-20T09:05:16.061Z,9.10
2017-04-20T09:06:17.488Z,9.05
2017-04-20T09:07:18.915Z,9.12
2017-04-20T09:08:20.342Z,9.34
2017-04-20T09:09:21.802Z,9.04
2017-04-20T09:10:23.278Z,9.16
2017-04-20T09:11:24.703Z,9.23
2017-04-20T09:12:26.223Z,9.25
2017-04-20T09:13:27.646Z,9.10
2017-04-20T09:14:29.084Z,9.30
2017-04-20T09:15:30.513Z,9.50
2017-04-20T09:16:31.959Z,9.52
2017-04-20T09:17:33.382Z,9.40
2017-04-20T09:18:34.811Z,9.40
2017-04-20T09:19:36.238Z,9.48
2017-04-20T09:20:37.675Z,9.32
2017-04-20T09:21:39.101Z,9.42
2017-04-20T09:22:40.530Z,9.39
2017-04-20T09:23:42.068Z,9.39
2017-04-20T09:24:43.500Z,9.23
2017-04-20T09:25:44.930Z,9.16
2017-04-20T09:26:46.351Z,9.46
2017-04-20T09:27:47.780Z,9.68
2017-04-20T09:28:49.217Z,9.53
2017-04-20T09:29:50.653Z,9.39
2017-04-20T09:30:52.081Z,9.50
2017-04-20T09:31:53.501Z,9.21
2017-04-20T09:32:54.934Z,9.32
2017-04-20T09:33:56.362Z,9.45
2017-04-20T09:34:57.790Z,9.39
2017-04-20T09:35:59.219Z,9.32
2017-04-20T09:37:00.657Z,9.52
2017-04-20T09:38:02.081Z,9.43
2017-04-20T09:39:03.512Z,9.25
2017-04-20T09:40:04.936Z,9.40
2017-04-20T09:41:06.368Z,9.46
2017-04-20T09:42:07.800Z,9.60
2017-04-20T09:43:09.233Z,9.49
2017-04-20T09:44:10.663Z,9.61
2017-04-20T09:45:12.096Z,9.83
2017-04-20T09:46:13.522Z,10.04
2017-04-20T09:47:14.958Z,10.10
2017-04-20T09:48:16.388Z,9.94
2017-04-20T09:49:17.819Z,9.93
2017-04-20T09:50:19.239Z,9.96
2017-04-20T09:51:20.668Z,10.07
2017-04-20T09:52:22.099Z,10.09
2017-04-20T09:53:23.527Z,10.32
2017-04-20T09:54:24.960Z,10.00
2017-04-20T09:55:26.391Z,9.97
2017-04-20T09:56:27.815Z,9.85
2017-04-20T09:57:29.255Z,9.94
2017-04-20T09:58:30.679Z,10.19
2017-04-20T09:59:32.112Z,9.96
2017-04-20T10:00:33.547Z,9.81
2017-04-20T10:01:34.975Z,9.43
2017-04-20T10:02:36.424Z,9.60
2017-04-20T10:03:37.849Z,9.97
2017-04-20T10:04:39.288Z,10.09
2017-04-20T10:05:40.724Z,10.17
2017-04-20T10:06:42.157Z,10.46
2017-04-20T10:07:43.587Z,10.37
2017-04-20T10:08:45.014Z,10.09
2017-04-20T10:09:46.447Z,10.12
2017-04-20T10:10:47.879Z,10.30
2017-04-20T10:11:49.308Z,10.28
2017-04-20T10:12:50.734Z,10.44
2017-04-20T10:13:52.171Z,10.10
2017-04-20T10:14:53.603Z,10.17
2017-04-20T10:15:55.033Z,10.37
2017-04-20T10:16:56.466Z,10.36
2017-04-20T10:17:57.898Z,10.46
2017-04-20T10:18:59.337Z,10.40
2017-04-20T10:20:00.767Z,10.84
2017-04-20T10:21:02.193Z,11.19
2017-04-20T10:22:03.626Z,11.19
2017-04-20T10:23:05.058Z,10.78
2017-04-20T10:24:06.498Z,10.65
2017-04-20T10:25:07.925Z,10.53
2017-04-20T10:26:09.355Z,10.86
2017-04-20T10:27:11.959Z,10.98
2017-04-20T10:28:13.388Z,10.96
2017-04-20T10:29:14.820Z,10.88
2017-04-20T10:30:16.256Z,10.66
2017-04-20T10:31:17.685Z,10.63
2017-04-20T10:32:19.112Z,10.71
2017-04-20T10:33:20.552Z,10.86
2017-04-20T10:34:21.985Z,11.28
2017-04-20T10:35:23.417Z,11.02
2017-04-20T10:36:24.854Z,11.13
2017-04-20T10:37:26.301Z,10.80
2017-04-20T10:38:27.745Z,10.92
2017-04-20T10:39:29.177Z,11.31
2017-04-20T10:40:30.607Z,11.64
2017-04-20T10:41:32.033Z,11.32
2017-04-20T10:42:33.462Z,11.11
2017-04-20T10:43:34.900Z,11.16
2017-04-20T10:44:36.337Z,11.34
2017-04-20T10:45:37.766Z,11.02
2017-04-20T10:46:39.204Z,11.32
2017-04-20T10:47:40.638Z,11.20
2017-04-20T10:48:42.074Z,11.29
2017-04-20T10:49:43.500Z,11.56
2017-04-20T10:50:44.950Z,11.64
2017-04-20T10:51:46.374Z,11.80
2017-04-20T10:52:47.804Z,11.52
2017-04-20T10:53:49.234Z,11.35
2017-04-20T10:54:50.671Z,11.16
2017-04-20T10:55:52.108Z,11.27
2017-04-20T10:56:53.582Z,11.50
2017-04-20T10:57:55.016Z,11.74
2017-04-20T10:58:56.444Z,11.49
2017-04-20T10:59:57.911Z,11.75
2017-04-20T11:00:59.346Z,12.01
2017-04-20T11:02:00.782Z,11.93
2017-04-20T11:03:02.226Z,11.34
2017-04-20T11:04:03.658Z,11.65
2017-04-20T11:05:05.084Z,11.80
2017-04-20T11:06:06.518Z,11.96
2017-04-20T11:07:07.957Z,12.06
2017-04-20T11:08:09.390Z,11.77
2017-04-20T11:09:10.824Z,11.61
2017-04-20T11:10:12.253Z,11.25
2017-04-20T11:11:13.694Z,11.52
2017-04-20T11:12:15.129Z,11.62
2017-04-20T11:13:16.557Z,11.83
2017-04-20T11:14:17.990Z,11.97
2017-04-20T11:15:19.426Z,11.78
2017-04-20T11:16:20.861Z,11.75
2017-04-20T11:17:22.303Z,11.64
2017-04-20T11:18:23.808Z,11.96
2017-04-20T11:19:25.238Z,12.06
2017-04-20T11:20:26.670Z,12.27
2017-04-20T11:21:28.167Z,12.38
2017-04-20T11:22:29.599Z,12.20
2017-04-20T11:23:31.036Z,12.45
2017-04-20T11:24:32.467Z,12.79
2017-04-20T11:25:33.892Z,12.78
2017-04-20T11:26:35.328Z,12.93
2017-04-20T11:27:36.773Z,12.79
2017-04-20T11:28:38.201Z,12.88
2017-04-20T11:29:39.636Z,12.63
2017-04-20T11:30:41.066Z,12.71
2017-04-20T11:31:42.498Z,12.78
2017-04-20T11:32:43.931Z,12.78
2017-04-20T11:33:45.371Z,12.97
2017-04-20T11:34:46.800Z,12.95
2017-04-20T11:35:48.240Z,12.84
2017-04-20T11:36:49.680Z,12.66
2017-04-20T11:37:51.122Z,12.67
2017-04-20T11:38:52.559Z,12.54
2017-04-20T11:39:53.990Z,12.66
2017-04-20T11:40:55.431Z,12.34
2017-04-20T11:41:56.860Z,12.11
2017-04-20T11:42:58.288Z,12.05
2017-04-20T11:43:59.732Z,12.56
2017-04-20T11:45:01.173Z,12.38
2017-04-20T11:46:02.611Z,12.62
2017-04-20T11:47:04.050Z,13.07
2017-04-20T11:48:05.489Z,12.96
2017-04-20T11:49:06.913Z,12.67
2017-04-20T11:50:08.347Z,12.57
2017-04-20T11:51:09.785Z,12.34
2017-04-20T11:52:11.243Z,12.46
2017-04-20T11:53:12.673Z,12.27
2017-04-20T11:54:14.110Z,12.60
2017-04-20T11:55:15.544Z,12.78
2017-04-20T11:56:16.980Z,12.84
2017-04-20T11:57:18.423Z,12.05
2017-04-20T11:58:19.855Z,12.66
2017-04-20T11:59:21.287Z,12.60
2017-04-20T12:00:22.729Z,12.97
2017-04-20T12:01:24.162Z,13.33
2017-04-20T12:02:26.481Z,13.46
2017-04-20T12:03:27.918Z,13.11
2017-04-20T12:04:29.368Z,13.00
2017-04-20T12:05:30.799Z,12.99
2017-04-20T12:06:32.236Z,13.46
2017-04-20T12:07:33.663Z,13.40
2017-04-20T12:08:35.091Z,13.37
2017-04-20T12:09:36.550Z,13.40
2017-04-20T12:10:37.992Z,13.25
2017-04-20T12:11:39.414Z,13.17
2017-04-20T12:12:40.843Z,12.84
2017-04-20T12:13:42.278Z,13.07
2017-04-20T12:14:43.715Z,12.99
2017-04-20T12:15:45.148Z,12.77
2017-04-20T12:16:46.574Z,12.67
2017-04-20T12:17:48.007Z,12.92
2017-04-20T12:18:49.441Z,13.22
2017-04-20T12:19:50.875Z,13.15
2017-04-20T12:20:52.332Z,13.33
2017-04-20T12:21:53.698Z,13.41
2017-04-20T12:22:55.125Z,13.27
2017-04-20T12:23:56.557Z,13.03
2017-04-20T12:24:57.987Z,13.41
2017-04-20T12:25:59.418Z,13.07
2017-04-20T12:27:00.849Z,13.46
2017-04-20T12:28:02.281Z,12.78
2017-04-20T12:29:03.719Z,12.99
2017-04-20T12:30:05.144Z,13.40
2017-04-20T12:31:06.577Z,13.30
2017-04-20T12:32:08.003Z,13.00
2017-04-20T12:33:09.441Z,12.99
2017-04-20T12:34:10.876Z,12.97
2017-04-20T12:35:12.311Z,12.81
2017-04-20T12:36:13.742Z,12.64
2017-04-20T12:37:15.181Z,12.93
2017-04-20T12:38:16.613Z,13.17
2017-04-20T12:39:18.046Z,13.41
2017-04-20T12:40:19.497Z,13.44
2017-04-20T12:41:20.912Z,13.58
2017-04-20T12:42:22.341Z,13.49
2017-04-20T12:43:23.775Z,13.73
2017-04-20T12:44:25.202Z,13.70
2017-04-20T12:45:26.635Z,13.63
2017-04-20T12:46:28.070Z,13.40
2017-04-20T12:47:29.510Z,13.40
2017-04-20T12:48:30.940Z,13.87
2017-04-20T12:49:32.370Z,13.55
2017-04-20T12:50:33.812Z,13.55
2017-04-20T12:51:35.242Z,13.41
2017-04-20T12:52:36.685Z,13.70
2017-04-20T12:53:38.111Z,13.69
2017-04-20T12:54:39.557Z,13.40
2017-04-20T12:55:40.985Z,13.32
2017-04-20T12:56:42.420Z,13.41
2017-04-20T12:57:43.853Z,13.51
2017-04-20T12:58:45.287Z,13.52
2017-04-20T12:59:46.715Z,13.58
2017-04-20T13:00:48.307Z,13.84
2017-04-20T13:01:49.737Z,13.74
2017-04-20T13:02:51.170Z,14.02
2017-04-20T13:03:52.609Z,14.38
2017-04-20T13:04:54.039Z,14.35
2017-04-20T13:05:55.508Z,13.88
2017-04-20T13:06:56.940Z,13.91
2017-04-20T13:07:58.375Z,13.92
2017-04-20T13:08:59.814Z,14.16
2017-04-20T13:10:01.247Z,14.04
2017-04-20T13:11:02.680Z,14.16
2017-04-20T13:12:04.114Z,14.01
2017-04-20T13:13:05.511Z,13.94
2017-04-20T13:14:06.956Z,13.88
2017-04-20T13:15:08.403Z,13.61
2017-04-20T13:16:09.838Z,13.67
2017-04-20T13:17:11.305Z,13.95
2017-04-20T13:18:12.742Z,13.95
2017-04-20T13:19:14.260Z,13.99
2017-04-20T13:20:15.677Z,14.01
2017-04-20T13:21:17.107Z,13.71
2017-04-20T13:22:18.536Z,13.62
2017-04-20T13:23:19.972Z,13.98
2017-04-20T13:24:21.496Z,14.09
2017-04-20T13:25:22.921Z,13.98
2017-04-20T13:26:24.360Z,14.29
2017-04-20T13:27:25.811Z,14.56
2017-04-20T13:28:27.252Z,14.34
2017-04-20T13:29:28.682Z,14.62
2017-04-20T13:30:30.114Z,14.91
2017-04-20T13:31:31.548Z,15.30
2017-04-20T13:32:32.996Z,15.57
2017-04-20T13:33:34.382Z,15.57
2017-04-20T13:34:35.821Z,16.44
2017-04-20T13:35:37.263Z,17.25
2017-04-20T13:36:38.687Z,17.82
2017-04-20T13:37:40.136Z,17.62
2017-04-20T13:38:41.602Z,17.11
2017-04-20T13:39:43.030Z,16.52
2017-04-20T13:40:44.464Z,15.96
2017-04-20T13:41:45.917Z,16.68
2017-04-20T13:42:47.380Z,17.36
2017-04-20T13:43:48.833Z,16.67
2017-04-20T13:44:50.265Z,17.64
2017-04-20T13:45:51.720Z,16.33
2017-04-20T13:46:53.144Z,15.93
2017-04-20T13:47:54.594Z,15.42
2017-04-20T13:48:56.033Z,14.80
2017-04-20T13:49:57.477Z,15.02
2017-04-20T13:50:58.905Z,14.75
2017-04-20T13:52:00.338Z,14.28
2017-04-20T13:53:01.769Z,13.81
2017-04-20T13:54:03.205Z,14.04
2017-04-20T13:55:04.646Z,13.67
2017-04-20T13:56:06.086Z,13.51
2017-04-20T13:57:07.521Z,13.54
2017-04-20T13:58:08.957Z,13.46
2017-04-20T13:59:10.392Z,13.49
2017-04-20T14:00:11.822Z,13.67
2017-04-20T14:01:13.256Z,13.76
2017-04-20T14:02:14.694Z,13.37
2017-04-20T14:03:16.126Z,13.63
2017-04-20T14:04:17.517Z,13.73
2017-04-20T14:05:18.950Z,13.40
2017-04-20T14:06:20.384Z,13.36
2017-04-20T14:07:21.816Z,12.93
2017-04-20T14:08:23.247Z,13.36
2017-04-20T14:09:24.679Z,13.32
2017-04-20T14:10:26.119Z,12.81
2017-04-20T14:11:27.548Z,12.81
2017-04-20T14:12:28.983Z,13.12
2017-04-20T14:13:30.419Z,13.46
2017-04-20T14:14:31.858Z,13.27
2017-04-20T14:15:33.299Z,13.15
2017-04-20T14:16:34.737Z,13.36
2017-04-20T14:17:36.185Z,13.25
2017-04-20T14:18:37.614Z,12.97
2017-04-20T14:19:39.039Z,12.92
2017-04-20T14:20:40.480Z,13.14
2017-04-20T14:21:41.911Z,12.99
2017-04-20T14:22:43.346Z,13.07
2017-04-20T14:23:44.789Z,12.84
2017-04-20T14:24:46.225Z,12.85
2017-04-20T14:25:47.668Z,12.96
2017-04-20T14:26:49.114Z,13.09
2017-04-20T14:27:50.549Z,13.44
2017-04-20T14:28:51.986Z,13.18
2017-04-20T14:29:53.429Z,13.44
2017-04-20T14:30:54.854Z,13.56
2017-04-20T14:31:56.287Z,12.96
2017-04-20T14:32:57.714Z,12.89
2017-04-20T14:33:59.149Z,12.46
2017-04-20T14:35:00.580Z,12.63
2017-04-20T14:36:02.013Z,12.78
2017-04-20T14:37:03.449Z,12.79
2017-04-20T14:38:04.886Z,12.95
2017-04-20T14:39:06.317Z,12.97
2017-04-20T14:40:07.748Z,12.93
2017-04-20T14:41:09.181Z,12.87
2017-04-20T14:42:10.612Z,12.92
2017-04-20T14:43:12.040Z,12.78
2017-04-20T14:44:13.486Z,12.74
2017-04-20T14:45:15.580Z,12.66
2017-04-20T14:46:17.017Z,12.45
2017-04-20T14:47:18.457Z,12.20
2017-04-20T14:48:19.900Z,12.23
2017-04-20T14:49:21.331Z,12.48
2017-04-20T14:50:22.771Z,12.71
2017-04-20T14:51:24.225Z,12.81
2017-04-20T14:52:25.661Z,12.93
2017-04-20T14:53:27.099Z,12.88
2017-04-20T14:54:28.523Z,12.78
2017-04-20T14:55:30.019Z,12.77
2017-04-20T14:56:32.440Z,12.77
2017-04-20T14:57:33.881Z,12.59
2017-04-20T14:58:35.314Z,12.48
2017-04-20T14:59:37.625Z,12.66
2017-04-20T15:00:39.062Z,12.57
2017-04-20T15:01:40.489Z,12.41
2017-04-20T15:02:41.993Z,12.31
2017-04-20T15:03:43.415Z,12.56
2017-04-20T15:04:44.855Z,12.67
2017-04-20T15:05:46.289Z,12.67
2017-04-20T15:06:47.733Z,12.78
2017-04-20T15:07:49.166Z,12.75
2017-04-20T15:08:50.598Z,12.67
2017-04-20T15:09:52.038Z,12.59
2017-04-20T15:10:53.601Z,12.78
2017-04-20T15:11:55.037Z,12.66
2017-04-20T15:12:56.467Z,12.64
2017-04-20T15:13:57.935Z,12.52
2017-04-20T15:14:59.366Z,12.75
2017-04-20T15:16:00.754Z,12.78
2017-04-20T15:17:02.283Z,12.77
2017-04-20T15:18:03.719Z,12.66
2017-04-20T15:19:05.156Z,12.69
2017-04-20T15:20:06.597Z,12.77
2017-04-20T15:21:08.035Z,12.71
2017-04-20T15:22:09.458Z,12.79
2017-04-20T15:23:10.898Z,12.89
2017-04-20T15:24:12.329Z,12.69
2017-04-20T15:25:13.793Z,12.79
2017-04-20T15:26:15.225Z,12.82
2017-04-20T15:27:16.660Z,12.89
2017-04-20T15:28:18.147Z,12.93
2017-04-20T15:29:19.581Z,12.92
2017-04-20T15:30:21.014Z,12.75
2017-04-20T15:31:22.447Z,12.74
2017-04-20T15:32:23.884Z,12.81
2017-04-20T15:33:25.313Z,12.89
2017-04-20T15:34:26.751Z,12.87
2017-04-20T15:35:28.183Z,12.67
2017-04-20T15:36:29.620Z,12.79
2017-04-20T15:37:31.048Z,12.56
2017-04-20T15:38:32.481Z,12.57
2017-04-20T15:39:33.906Z,12.70
2017-04-20T15:40:35.344Z,12.74
2017-04-20T15:41:36.773Z,12.57
2017-04-20T15:42:38.208Z,12.78
2017-04-20T15:43:39.647Z,12.79
2017-04-20T15:44:41.076Z,12.78
2017-04-20T15:45:42.509Z,12.92
2017-04-20T15:46:43.904Z,13.36
2017-04-20T15:47:45.349Z,14.12
2017-04-20T15:48:46.782Z,13.92
2017-04-20T15:49:48.220Z,12.96
2017-04-20T15:50:49.659Z,12.93
2017-04-20T15:51:51.102Z,12.75
2017-04-20T15:52:52.536Z,12.74
2017-04-20T15:53:53.973Z,12.60
2017-04-20T15:54:55.413Z,12.46
2017-04-20T15:55:56.844Z,12.44
2017-04-20T15:56:58.278Z,12.48
2017-04-20T15:57:59.709Z,12.49
2017-04-20T15:59:01.152Z,12.44
2017-04-20T16:00:02.575Z,12.48
2017-04-20T16:01:04.016Z,12.51
2017-04-20T16:02:05.446Z,12.67
2017-04-20T16:03:06.881Z,12.85
2017-04-20T16:04:08.313Z,12.95
2017-04-20T16:05:09.744Z,12.96
2017-04-20T16:06:11.197Z,12.71
2017-04-20T16:07:12.632Z,12.79
2017-04-20T16:08:14.066Z,12.89
2017-04-20T16:09:15.485Z,13.00
2017-04-20T16:10:16.920Z,12.97
2017-04-20T16:11:18.363Z,13.09
2017-04-20T16:12:19.796Z,12.89
2017-04-20T16:13:21.228Z,12.84
2017-04-20T16:14:22.667Z,13.03
2017-04-20T16:15:24.095Z,13.03
2017-04-20T16:16:25.484Z,13.04
2017-04-20T16:17:26.917Z,13.22
2017-04-20T16:18:28.346Z,12.99
2017-04-20T16:19:29.779Z,12.93
2017-04-20T16:20:31.215Z,12.95
2017-04-20T16:21:32.659Z,12.99
2017-04-20T16:22:34.089Z,12.95
2017-04-20T16:23:35.532Z,12.99
2017-04-20T16:24:36.965Z,13.06
2017-04-20T16:25:38.396Z,13.37
2017-04-20T16:26:39.832Z,13.33
2017-04-20T16:27:41.262Z,13.29
2017-04-20T16:28:42.694Z,13.25
2017-04-20T16:29:44.137Z,13.27
2017-04-20T16:30:45.571Z,13.27
2017-04-20T16:31:46.995Z,13.55
2017-04-20T16:32:48.427Z,13.56
2017-04-20T16:33:49.863Z,13.59
2017-04-20T16:34:51.297Z,13.32
2017-04-20T16:35:52.728Z,13.24